createdAt,value
2023-05-13T00:00:51.324Z,40.26
2023-05-13T00:01:51.315Z,38.90
2023-05-13T00:02:51.394Z,38.65
2023-05-13T00:03:51.363Z,39.76
2023-05-13T00:04:51.289Z,39.43
2023-05-13T00:05:51.290Z,42.96
2023-05-13T00:06:51.282Z,46.53
2023-05-13T00:07:51.268Z,39.76
2023-05-13T00:08:51.264Z,39.06
2023-05-13T00:09:51.248Z,40.08
2023-05-13T00:10:51.234Z,41.17
2023-05-13T00:11:51.247Z,39.82
2023-05-13T00:12:51.210Z,40.46
2023-05-13T00:13:51.202Z,40.38
2023-05-13T00:14:51.185Z,41.84
2023-05-13T00:15:51.279Z,43.73
2023-05-13T00:16:51.230Z,44.73
2023-05-13T00:17:51.228Z,42.79
2023-05-13T00:18:51.220Z,42.84
2023-05-13T00:19:51.148Z,43.57
2023-05-13T00:20:51.143Z,44.24
2023-05-13T00:21:51.132Z,42.74
2023-05-13T00:22:51.105Z,44.27
2023-05-13T00:23:51.093Z,43.82
2023-05-13T00:24:51.093Z,43.06
2023-05-13T00:25:51.104Z,45.95
2023-05-13T00:26:51.064Z,44.86
2023-05-13T00:27:51.053Z,45.10
2023-05-13T00:28:51.055Z,43.49
2023-05-13T00:29:51.035Z,43.93
2023-05-13T00:30:51.046Z,45.04
2023-05-13T00:31:51.037Z,48.06
2023-05-13T00:32:51.037Z,42.58
2023-05-13T00:33:50.997Z,40.10
2023-05-13T00:34:50.996Z,42.93
2023-05-13T00:35:50.986Z,43.82
2023-05-13T00:36:50.972Z,48.30
2023-05-13T00:37:50.962Z,41.33
2023-05-13T00:38:50.950Z,42.38
2023-05-13T00:39:50.966Z,45.43
2023-05-13T00:40:50.944Z,41.72
2023-05-13T00:41:50.910Z,41.28
2023-05-13T00:42:50.975Z,40.77
2023-05-13T00:43:50.902Z,40.04
2023-05-13T00:44:50.906Z,42.05
2023-05-13T00:45:50.915Z,40.54
2023-05-13T00:46:50.867Z,45.65
2023-05-13T00:47:51.009Z,40.16
2023-05-13T00:48:50.866Z,42.65
2023-05-13T00:49:50.861Z,42.44
2023-05-13T00:50:50.830Z,40.38
2023-05-13T00:51:50.818Z,39.91
2023-05-13T00:52:50.820Z,43.69
2023-05-13T00:53:50.833Z,40.95
2023-05-13T00:54:50.807Z,39.40
2023-05-13T00:55:50.816Z,39.19
2023-05-13T00:56:50.772Z,43.65
2023-05-13T00:57:50.761Z,40.83
2023-05-13T00:58:50.784Z,41.18
2023-05-13T00:59:50.749Z,42.27
2023-05-13T01:00:50.789Z,38.50
2023-05-13T01:01:50.731Z,38.75
2023-05-13T01:02:50.801Z,39.78
2023-05-13T01:03:50.724Z,41.86
2023-05-13T01:04:50.698Z,40.21
2023-05-13T01:05:50.699Z,37.53
2023-05-13T01:06:50.673Z,39.88
2023-05-13T01:07:50.653Z,38.83
2023-05-13T01:08:50.668Z,38.45
2023-05-13T01:09:50.632Z,39.34
2023-05-13T01:10:50.636Z,39.76
2023-05-13T01:11:50.627Z,36.90
2023-05-13T01:12:50.606Z,37.82
2023-05-13T01:13:50.601Z,38.39
2023-05-13T01:14:50.586Z,38.56
2023-05-13T01:15:50.581Z,40.50
2023-05-13T01:16:50.606Z,44.88
2023-05-13T01:17:50.595Z,41.33
2023-05-13T01:18:50.612Z,37.89
2023-05-13T01:19:50.544Z,47.79
2023-05-13T01:20:50.524Z,37.13
2023-05-13T01:21:50.517Z,36.70
2023-05-13T01:22:50.522Z,36.35
2023-05-13T01:23:50.502Z,36.76
2023-05-13T01:24:50.521Z,37.16
2023-05-13T01:25:50.477Z,36.66
2023-05-13T01:26:50.469Z,43.60
2023-05-13T01:27:50.454Z,37.67
2023-05-13T01:28:51.459Z,39.47
2023-05-13T01:29:50.447Z,35.73
2023-05-13T01:30:50.480Z,36.71
2023-05-13T01:31:50.429Z,35.90
2023-05-13T01:32:50.476Z,36.43
2023-05-13T01:33:50.406Z,43.39
2023-05-13T01:34:50.388Z,37.32
2023-05-13T01:35:50.382Z,37.75
2023-05-13T01:36:50.379Z,37.18
2023-05-13T01:37:50.370Z,37.67
2023-05-13T01:38:50.362Z,37.79
2023-05-13T01:39:50.347Z,39.35
2023-05-13T01:40:50.344Z,42.32
2023-05-13T01:41:50.342Z,37.97
2023-05-13T01:42:50.315Z,37.77
2023-05-13T01:43:50.304Z,37.91
2023-05-13T01:44:50.301Z,38.05
2023-05-13T01:45:50.298Z,38.19
2023-05-13T01:46:50.543Z,37.83
2023-05-13T01:47:50.325Z,43.07
2023-05-13T01:48:50.257Z,38.08
2023-05-13T01:49:50.241Z,37.73
2023-05-13T01:50:50.262Z,47.18
2023-05-13T01:51:50.226Z,37.59
2023-05-13T01:52:50.213Z,37.59
2023-05-13T01:53:50.215Z,37.65
2023-05-13T01:54:50.192Z,45.38
2023-05-13T01:55:50.208Z,37.83
2023-05-13T01:56:50.177Z,39.69
2023-05-13T01:57:50.171Z,42.73
2023-05-13T01:58:50.142Z,37.42
2023-05-13T01:59:51.188Z,36.46
2023-05-13T02:00:50.140Z,37.78
2023-05-13T02:01:50.140Z,38.56
2023-05-13T02:02:50.178Z,37.98
2023-05-13T02:03:50.215Z,37.40
2023-05-13T02:04:50.106Z,36.67
2023-05-13T02:05:50.085Z,36.64
2023-05-13T02:06:50.076Z,40.43
2023-05-13T02:07:50.064Z,35.79
2023-05-13T02:08:50.051Z,41.88
2023-05-13T02:09:50.053Z,41.13
2023-05-13T02:10:50.041Z,37.44
2023-05-13T02:11:50.050Z,37.40
2023-05-13T02:12:50.031Z,36.21
2023-05-13T02:13:50.019Z,39.61
2023-05-13T02:14:50.014Z,36.02
2023-05-13T02:15:49.991Z,38.05
2023-05-13T02:16:50.163Z,42.67
2023-05-13T02:17:50.003Z,36.79
2023-05-13T02:18:50.038Z,36.58
2023-05-13T02:19:49.948Z,37.11
2023-05-13T02:20:49.947Z,36.89
2023-05-13T02:21:49.939Z,36.81
2023-05-13T02:22:49.914Z,37.23
2023-05-13T02:23:49.912Z,37.22
2023-05-13T02:24:49.900Z,37.69
2023-05-13T02:25:49.884Z,36.81
2023-05-13T02:26:49.891Z,36.76
2023-05-13T02:27:49.886Z,36.55
2023-05-13T02:28:49.876Z,36.80
2023-05-13T02:29:49.847Z,37.28
2023-05-13T02:30:49.848Z,39.78
2023-05-13T02:31:49.837Z,39.20
2023-05-13T02:32:49.882Z,39.20
2023-05-13T02:33:49.805Z,40.50
2023-05-13T02:34:49.806Z,42.53
2023-05-13T02:35:49.795Z,42.76
2023-05-13T02:36:49.776Z,44.14
2023-05-13T02:37:49.784Z,44.64
2023-05-13T02:38:49.756Z,45.00
2023-05-13T02:39:49.744Z,43.62
2023-05-13T02:40:49.746Z,44.11
2023-05-13T02:41:49.741Z,45.90
2023-05-13T02:42:49.738Z,46.08
2023-05-13T02:43:49.728Z,46.70
2023-05-13T02:44:49.707Z,45.10
2023-05-13T02:45:49.720Z,45.43
2023-05-13T02:46:49.685Z,46.67
2023-05-13T02:47:49.709Z,48.55
2023-05-13T02:48:49.671Z,47.87
2023-05-13T02:49:50.660Z,47.66
2023-05-13T02:50:49.637Z,46.84
2023-05-13T02:51:49.648Z,45.40
2023-05-13T02:52:49.626Z,43.09
2023-05-13T02:53:49.613Z,46.15
2023-05-13T02:54:49.628Z,52.34
2023-05-13T02:55:49.602Z,52.55
2023-05-13T02:56:49.596Z,50.27
2023-05-13T02:57:49.580Z,49.12
2023-05-13T02:58:49.558Z,50.81
2023-05-13T02:59:49.557Z,52.96
2023-05-13T03:00:49.554Z,46.47
2023-05-13T03:01:49.586Z,54.59
2023-05-13T03:02:49.550Z,54.99
2023-05-13T03:03:49.542Z,51.64
2023-05-13T03:04:49.502Z,52.37
2023-05-13T03:05:49.520Z,46.85
2023-05-13T03:06:49.491Z,52.04
2023-05-13T03:07:49.476Z,53.44
2023-05-13T03:08:49.462Z,54.10
2023-05-13T03:09:49.474Z,50.07
2023-05-13T03:10:49.465Z,49.49
2023-05-13T03:11:49.428Z,47.36
2023-05-13T03:12:49.425Z,45.06
2023-05-13T03:13:49.419Z,45.59
2023-05-13T03:14:49.424Z,51.43
2023-05-13T03:15:49.445Z,50.14
2023-05-13T03:16:49.388Z,51.06
2023-05-13T03:17:49.400Z,50.71
2023-05-13T03:18:49.386Z,49.43
2023-05-13T03:19:49.372Z,48.43
2023-05-13T03:20:49.347Z,48.49
2023-05-13T03:21:49.336Z,49.84
2023-05-13T03:22:49.329Z,45.47
2023-05-13T03:23:49.314Z,46.02
2023-05-13T03:24:49.319Z,44.31
2023-05-13T03:25:49.295Z,44.40
2023-05-13T03:26:49.291Z,45.00
2023-05-13T03:27:49.275Z,45.34
2023-05-13T03:28:49.273Z,49.16
2023-05-13T03:29:49.265Z,47.24
2023-05-13T03:30:49.251Z,46.90
2023-05-13T03:31:49.278Z,48.23
2023-05-13T03:32:49.320Z,47.62
2023-05-13T03:33:49.225Z,43.67
2023-05-13T03:34:49.224Z,43.20
2023-05-13T03:35:49.202Z,42.32
2023-05-13T03:36:49.202Z,39.92
2023-05-13T03:37:49.175Z,49.28
2023-05-13T03:38:49.180Z,45.99
2023-05-13T03:39:49.164Z,48.44
2023-05-13T03:40:49.156Z,48.13
2023-05-13T03:41:49.138Z,47.29
2023-05-13T03:42:49.122Z,47.47
2023-05-13T03:43:49.129Z,50.53
2023-05-13T03:44:49.114Z,50.36
2023-05-13T03:45:49.096Z,46.34
2023-05-13T03:46:49.138Z,46.91
2023-05-13T03:47:49.105Z,47.68
2023-05-13T03:48:49.083Z,49.26
2023-05-13T03:49:49.063Z,46.17
2023-05-13T03:50:49.056Z,46.14
2023-05-13T03:51:49.042Z,45.18
2023-05-13T03:52:49.038Z,45.76
2023-05-13T03:53:49.020Z,46.08
2023-05-13T03:54:49.115Z,44.64
2023-05-13T03:55:48.995Z,43.28
2023-05-13T03:56:48.981Z,39.86
2023-05-13T03:57:49.015Z,39.53
2023-05-13T03:58:48.979Z,47.82
2023-05-13T03:59:48.954Z,45.23
2023-05-13T04:00:48.967Z,45.25
2023-05-13T04:01:49.063Z,45.01
2023-05-13T04:02:49.054Z,53.46
2023-05-13T04:03:48.987Z,45.91
2023-05-13T04:04:49.011Z,49.96
2023-05-13T04:05:49.013Z,55.78
2023-05-13T04:06:48.894Z,52.74
2023-05-13T04:07:48.873Z,50.81
2023-05-13T04:08:48.920Z,45.22
2023-05-13T04:09:48.896Z,46.46
2023-05-13T04:10:48.877Z,48.24
2023-05-13T04:11:48.858Z,47.70
2023-05-13T04:12:48.838Z,42.80
2023-05-13T04:13:48.854Z,49.53
2023-05-13T04:14:48.800Z,48.42
2023-05-13T04:15:48.806Z,49.38
2023-05-13T04:16:48.860Z,47.00
2023-05-13T04:17:48.829Z,49.39
2023-05-13T04:18:48.851Z,47.46
2023-05-13T04:19:48.793Z,47.57
2023-05-13T04:20:48.778Z,49.22
2023-05-13T04:21:48.736Z,51.94
2023-05-13T04:22:48.737Z,48.96
2023-05-13T04:23:48.725Z,49.37
2023-05-13T04:24:48.696Z,46.56
2023-05-13T04:25:48.707Z,42.03
2023-05-13T04:26:48.678Z,47.44
2023-05-13T04:27:48.672Z,46.12
2023-05-13T04:28:48.659Z,46.39
2023-05-13T04:29:48.651Z,48.47
2023-05-13T04:30:48.643Z,49.92
2023-05-13T04:31:48.681Z,49.75
2023-05-13T04:32:48.640Z,48.08
2023-05-13T04:33:48.610Z,51.84
2023-05-13T04:34:48.599Z,48.79
2023-05-13T04:35:48.595Z,47.94
2023-05-13T04:36:48.574Z,42.61
2023-05-13T04:37:48.562Z,45.50
2023-05-13T04:38:48.550Z,46.77
2023-05-13T04:39:48.544Z,43.38
2023-05-13T04:40:49.550Z,49.70
2023-05-13T04:41:48.526Z,46.99
2023-05-13T04:42:48.511Z,47.50
2023-05-13T04:43:48.523Z,46.64
2023-05-13T04:44:48.507Z,49.97
2023-05-13T04:45:48.488Z,48.81
2023-05-13T04:46:48.565Z,46.68
2023-05-13T04:47:48.500Z,48.01
2023-05-13T04:48:48.753Z,48.68
2023-05-13T04:49:48.448Z,50.72
2023-05-13T04:50:48.453Z,44.95
2023-05-13T04:51:48.430Z,47.80
2023-05-13T04:52:48.413Z,52.78
2023-05-13T04:53:48.405Z,49.62
2023-05-13T04:54:48.397Z,46.92
2023-05-13T04:55:48.367Z,51.76
2023-05-13T04:56:48.373Z,48.05
2023-05-13T04:57:48.354Z,51.84
2023-05-13T04:58:48.358Z,49.47
2023-05-13T04:59:48.333Z,46.77
2023-05-13T05:00:48.336Z,49.06
2023-05-13T05:01:48.366Z,47.76
2023-05-13T05:02:48.362Z,48.63
2023-05-13T05:03:48.361Z,48.21
2023-05-13T05:04:48.281Z,49.75
2023-05-13T05:05:48.278Z,47.36
2023-05-13T05:06:48.262Z,44.32
2023-05-13T05:07:48.263Z,42.68
2023-05-13T05:08:48.259Z,44.99
2023-05-13T05:09:48.236Z,48.83
2023-05-13T05:10:49.308Z,47.67
2023-05-13T05:11:48.211Z,46.45
2023-05-13T05:12:48.213Z,45.56
2023-05-13T05:13:48.192Z,44.29
2023-05-13T05:14:48.185Z,45.44
2023-05-13T05:15:48.179Z,49.26
2023-05-13T05:16:48.309Z,42.57
2023-05-13T05:17:48.279Z,46.17
2023-05-13T05:18:48.288Z,47.93
2023-05-13T05:19:48.134Z,45.32
2023-05-13T05:20:48.125Z,44.37
2023-05-13T05:21:48.111Z,43.98
2023-05-13T05:22:48.111Z,40.63
2023-05-13T05:23:48.090Z,44.80
2023-05-13T05:24:48.117Z,39.62
2023-05-13T05:25:49.801Z,42.86
2023-05-13T05:26:49.064Z,44.13
2023-05-13T05:27:48.056Z,44.33
2023-05-13T05:28:48.041Z,46.23
2023-05-13T05:29:48.028Z,43.92
2023-05-13T05:30:48.023Z,45.80
2023-05-13T05:31:48.097Z,52.19
2023-05-13T05:32:48.048Z,49.22
2023-05-13T05:33:47.982Z,47.79
2023-05-13T05:34:47.979Z,51.81
2023-05-13T05:35:47.965Z,45.60
2023-05-13T05:36:47.962Z,41.89
2023-05-13T05:37:47.954Z,52.67
2023-05-13T05:38:47.928Z,48.18
2023-05-13T05:39:47.929Z,48.88
2023-05-13T05:40:47.939Z,48.29
2023-05-13T05:41:47.914Z,49.51
2023-05-13T05:42:47.894Z,54.60
2023-05-13T05:43:47.894Z,44.64
2023-05-13T05:44:47.894Z,49.19
2023-05-13T05:45:47.897Z,45.40
2023-05-13T05:46:47.851Z,52.05
2023-05-13T05:47:47.867Z,42.21
2023-05-13T05:48:47.993Z,43.06
2023-05-13T05:49:47.821Z,48.94
2023-05-13T05:50:47.816Z,45.83
2023-05-13T05:51:47.806Z,48.83
2023-05-13T05:52:47.788Z,48.17
2023-05-13T05:53:47.784Z,50.17
2023-05-13T05:54:47.767Z,52.52
2023-05-13T05:55:47.768Z,45.32
2023-05-13T05:56:47.758Z,47.35
2023-05-13T05:57:47.752Z,46.34
2023-05-13T05:58:47.741Z,51.57
2023-05-13T05:59:47.737Z,48.91
2023-05-13T06:00:47.773Z,45.55
2023-05-13T06:01:47.693Z,51.61
2023-05-13T06:02:47.804Z,47.51
2023-05-13T06:03:47.717Z,50.01
2023-05-13T06:04:47.696Z,49.31
2023-05-13T06:05:47.670Z,49.02
2023-05-13T06:06:47.679Z,48.78
2023-05-13T06:07:47.644Z,50.37
2023-05-13T06:08:47.629Z,48.37
2023-05-13T06:09:47.632Z,46.57
2023-05-13T06:10:47.618Z,50.57
2023-05-13T06:11:47.600Z,53.52
2023-05-13T06:12:47.590Z,50.40
2023-05-13T06:13:47.587Z,49.67
2023-05-13T06:14:47.576Z,54.94
2023-05-13T06:15:47.631Z,52.97
2023-05-13T06:16:47.555Z,48.23
2023-05-13T06:17:47.569Z,49.87
2023-05-13T06:18:47.579Z,52.25
2023-05-13T06:19:47.531Z,50.38
2023-05-13T06:20:47.511Z,51.47
2023-05-13T06:21:47.511Z,49.88
2023-05-13T06:22:47.499Z,45.40
2023-05-13T06:23:47.484Z,49.82
2023-05-13T06:24:47.465Z,52.17
2023-05-13T06:25:47.461Z,50.85
2023-05-13T06:26:47.448Z,49.00
2023-05-13T06:27:47.457Z,51.49
2023-05-13T06:28:47.484Z,56.51
2023-05-13T06:29:47.433Z,53.68
2023-05-13T06:30:47.418Z,53.50
2023-05-13T06:31:47.455Z,53.13
2023-05-13T06:33:00.279Z,50.02
2023-05-13T06:33:49.380Z,53.30
2023-05-13T06:34:47.396Z,51.43
2023-05-13T06:35:47.369Z,56.03
2023-05-13T06:36:47.351Z,55.20
2023-05-13T06:37:47.365Z,55.01
2023-05-13T06:38:47.364Z,52.35
2023-05-13T06:39:47.327Z,51.79
2023-05-13T06:40:47.318Z,54.12
2023-05-13T06:41:47.317Z,53.87
2023-05-13T06:42:47.310Z,54.03
2023-05-13T06:43:47.292Z,52.46
2023-05-13T06:44:47.290Z,56.41
2023-05-13T06:45:47.284Z,50.68
2023-05-13T06:46:47.281Z,53.33
2023-05-13T06:47:47.296Z,51.26
2023-05-13T06:48:47.233Z,52.22
2023-05-13T06:49:47.225Z,48.86
2023-05-13T06:50:47.229Z,52.25
2023-05-13T06:51:47.238Z,53.70
2023-05-13T06:52:47.205Z,52.86
2023-05-13T06:53:47.205Z,43.72
2023-05-13T06:54:47.187Z,49.05
2023-05-13T06:55:47.171Z,51.01
2023-05-13T06:56:47.178Z,51.07
2023-05-13T06:57:47.197Z,51.28
2023-05-13T06:58:47.148Z,47.90
2023-05-13T06:59:47.135Z,47.23
2023-05-13T07:00:47.201Z,53.38
2023-05-13T07:01:47.139Z,50.19
2023-05-13T07:02:47.125Z,51.56
2023-05-13T07:03:47.126Z,47.21
2023-05-13T07:04:47.080Z,50.52
2023-05-13T07:05:47.071Z,53.23
2023-05-13T07:06:47.068Z,52.74
2023-05-13T07:07:47.077Z,52.00
2023-05-13T07:08:47.038Z,51.71
2023-05-13T07:09:47.020Z,52.17
2023-05-13T07:10:47.058Z,53.93
2023-05-13T07:11:47.026Z,51.31
2023-05-13T07:12:46.997Z,49.34
2023-05-13T07:13:46.987Z,50.74
2023-05-13T07:14:46.975Z,52.36
2023-05-13T07:15:46.967Z,50.73
2023-05-13T07:16:46.949Z,51.00
2023-05-13T07:17:47.041Z,46.75
2023-05-13T07:18:46.964Z,54.40
2023-05-13T07:19:46.934Z,48.45
2023-05-13T07:20:46.925Z,49.64
2023-05-13T07:21:46.915Z,51.31
2023-05-13T07:22:46.899Z,50.39
2023-05-13T07:23:46.887Z,47.87
2023-05-13T07:24:46.901Z,51.23
2023-05-13T07:25:46.861Z,51.83
2023-05-13T07:26:46.877Z,51.70
2023-05-13T07:27:46.844Z,51.18
2023-05-13T07:28:46.817Z,54.12
2023-05-13T07:29:46.826Z,52.38
2023-05-13T07:30:46.857Z,52.04
2023-05-13T07:31:46.794Z,48.72
2023-05-13T07:32:46.884Z,51.97
2023-05-13T07:33:46.773Z,43.64
2023-05-13T07:34:46.780Z,50.49
2023-05-13T07:35:46.744Z,52.74
2023-05-13T07:36:46.774Z,51.08
2023-05-13T07:37:46.739Z,47.54
2023-05-13T07:38:46.728Z,51.83
2023-05-13T07:39:46.720Z,46.86
2023-05-13T07:40:46.704Z,52.24
2023-05-13T07:41:46.684Z,52.16
2023-05-13T07:42:46.694Z,47.43
2023-05-13T07:43:46.686Z,49.13
2023-05-13T07:44:46.665Z,47.41
2023-05-13T07:45:46.662Z,51.64
2023-05-13T07:46:46.707Z,47.52
2023-05-13T07:47:46.711Z,46.07
2023-05-13T07:48:46.629Z,44.15
2023-05-13T07:49:46.631Z,47.13
2023-05-13T07:50:46.600Z,49.01
2023-05-13T07:51:46.604Z,45.79
2023-05-13T07:52:46.595Z,46.42
2023-05-13T07:53:46.564Z,49.10
2023-05-13T07:54:46.558Z,51.50
2023-05-13T07:55:46.552Z,49.78
2023-05-13T07:56:46.566Z,51.62
2023-05-13T07:57:46.549Z,44.02
2023-05-13T07:58:46.526Z,46.95
2023-05-13T07:59:46.547Z,45.99
2023-05-13T08:00:46.504Z,48.42
2023-05-13T08:01:46.493Z,49.75
2023-05-13T08:02:46.540Z,51.36
2023-05-13T08:03:46.691Z,51.07
2023-05-13T08:04:46.524Z,49.01
2023-05-13T08:05:46.449Z,50.48
2023-05-13T08:06:46.454Z,41.49
2023-05-13T08:07:46.436Z,48.28
2023-05-13T08:08:46.436Z,50.18
2023-05-13T08:09:46.412Z,50.25
2023-05-13T08:10:46.410Z,52.85
2023-05-13T08:11:46.404Z,50.09
2023-05-13T08:12:46.381Z,51.93
2023-05-13T08:13:46.383Z,48.95
2023-05-13T08:14:48.250Z,46.11
2023-05-13T08:15:46.352Z,47.33
2023-05-13T08:16:46.476Z,41.61
2023-05-13T08:17:46.400Z,43.42
2023-05-13T08:18:46.342Z,47.50
2023-05-13T08:19:46.304Z,48.49
2023-05-13T08:20:46.307Z,44.04
2023-05-13T08:21:46.324Z,48.28
2023-05-13T08:22:46.280Z,52.23
2023-05-13T08:23:46.387Z,43.50
2023-05-13T08:24:46.277Z,42.86
2023-05-13T08:25:46.266Z,46.64
2023-05-13T08:26:46.260Z,40.49
2023-05-13T08:27:46.245Z,49.89
2023-05-13T08:28:46.231Z,47.10
2023-05-13T08:29:46.216Z,46.57
2023-05-13T08:30:46.214Z,50.24
2023-05-13T08:31:46.281Z,53.07
2023-05-13T08:32:46.247Z,49.76
2023-05-13T08:33:46.170Z,49.17
2023-05-13T08:34:46.169Z,47.22
2023-05-13T08:35:46.177Z,47.74
2023-05-13T08:36:46.144Z,48.56
2023-05-13T08:37:46.150Z,47.87
2023-05-13T08:38:46.135Z,44.60
2023-05-13T08:39:46.131Z,49.37
2023-05-13T08:40:46.124Z,50.92
2023-05-13T08:41:46.101Z,44.77
2023-05-13T08:42:46.085Z,46.81
2023-05-13T08:43:46.082Z,43.72
2023-05-13T08:44:46.077Z,52.27
2023-05-13T08:45:46.089Z,58.03
2023-05-13T08:46:46.043Z,51.01
2023-05-13T08:47:46.079Z,49.24
2023-05-13T08:48:46.029Z,49.29
2023-05-13T08:49:46.021Z,46.84
2023-05-13T08:50:46.019Z,52.40
2023-05-13T08:51:46.007Z,50.75
2023-05-13T08:52:46.002Z,48.88
2023-05-13T08:53:46.001Z,46.91
2023-05-13T08:54:45.982Z,45.67
2023-05-13T08:55:45.970Z,50.70
2023-05-13T08:56:45.953Z,49.39
2023-05-13T08:57:45.940Z,52.50
2023-05-13T08:58:46.027Z,43.65
2023-05-13T08:59:45.921Z,44.16
2023-05-13T09:00:45.914Z,43.84
2023-05-13T09:01:46.038Z,51.73
2023-05-13T09:02:45.954Z,46.98
2023-05-13T09:03:45.891Z,51.23
2023-05-13T09:04:45.911Z,47.96
2023-05-13T09:05:45.858Z,47.86
2023-05-13T09:06:45.847Z,45.68
2023-05-13T09:07:45.857Z,51.55
2023-05-13T09:08:45.847Z,49.76
2023-05-13T09:09:45.817Z,54.29
2023-05-13T09:10:45.809Z,45.06
2023-05-13T09:11:45.804Z,51.15
2023-05-13T09:12:45.804Z,46.40
2023-05-13T09:13:45.789Z,39.50
2023-05-13T09:14:45.771Z,46.78
2023-05-13T09:15:45.836Z,46.05
2023-05-13T09:16:45.757Z,45.20
2023-05-13T09:17:45.845Z,46.80
2023-05-13T09:18:45.770Z,47.43
2023-05-13T09:19:45.859Z,44.19
2023-05-13T09:20:45.717Z,47.93
2023-05-13T09:21:45.744Z,47.51
2023-05-13T09:22:45.710Z,50.89
2023-05-13T09:23:45.680Z,48.00
2023-05-13T09:24:45.670Z,46.80
2023-05-13T09:25:45.659Z,48.97
2023-05-13T09:26:45.675Z,46.85
2023-05-13T09:27:45.649Z,49.76
2023-05-13T09:28:45.629Z,46.65
2023-05-13T09:29:45.619Z,50.35
2023-05-13T09:30:46.782Z,50.41
2023-05-13T09:31:46.652Z,48.52
2023-05-13T09:32:45.632Z,45.12
2023-05-13T09:33:45.582Z,46.01
2023-05-13T09:34:45.570Z,48.60
2023-05-13T09:35:45.574Z,49.53
2023-05-13T09:36:45.563Z,44.96
2023-05-13T09:37:45.537Z,46.25
2023-05-13T09:38:45.530Z,50.88
2023-05-13T09:39:45.522Z,47.95
2023-05-13T09:40:45.523Z,47.39
2023-05-13T09:41:45.511Z,46.38
2023-05-13T09:42:45.501Z,45.14
2023-05-13T09:43:45.481Z,46.55
2023-05-13T09:44:45.484Z,44.95
2023-05-13T09:45:45.486Z,49.86
2023-05-13T09:46:45.520Z,48.50
2023-05-13T09:47:45.459Z,43.69
2023-05-13T09:48:46.444Z,47.68
2023-05-13T09:49:45.448Z,46.97
2023-05-13T09:50:45.433Z,42.82
2023-05-13T09:51:45.406Z,42.82
2023-05-13T09:52:45.402Z,47.81
2023-05-13T09:53:45.392Z,49.72
2023-05-13T09:54:45.384Z,46.41
2023-05-13T09:55:45.384Z,43.79
2023-05-13T09:56:45.362Z,44.28
2023-05-13T09:57:45.349Z,48.13
2023-05-13T09:58:45.347Z,42.17
2023-05-13T09:59:45.349Z,46.70
2023-05-13T10:00:45.641Z,45.76
2023-05-13T10:01:45.493Z,49.34
2023-05-13T10:02:45.349Z,48.87
2023-05-13T10:03:45.333Z,44.31
2023-05-13T10:04:45.297Z,48.14
2023-05-13T10:05:45.278Z,41.51
2023-05-13T10:06:45.266Z,44.51
2023-05-13T10:07:45.255Z,45.39
2023-05-13T10:08:45.245Z,49.61
2023-05-13T10:09:45.247Z,49.40
2023-05-13T10:10:45.224Z,54.11
2023-05-13T10:11:45.221Z,59.37
2023-05-13T10:12:45.212Z,52.74
2023-05-13T10:13:45.218Z,55.21
2023-05-13T10:14:45.205Z,54.50
2023-05-13T10:15:45.182Z,55.27
2023-05-13T10:16:45.193Z,55.76
2023-05-13T10:17:45.186Z,52.05
2023-05-13T10:18:45.203Z,53.29
2023-05-13T10:19:45.134Z,49.70
2023-05-13T10:20:46.130Z,50.89
2023-05-13T10:21:45.120Z,43.94
2023-05-13T10:22:45.109Z,45.98
2023-05-13T10:23:45.117Z,49.47
2023-05-13T10:24:45.091Z,50.61
2023-05-13T10:25:45.090Z,54.06
2023-05-13T10:26:45.078Z,48.22
2023-05-13T10:27:45.078Z,49.39
2023-05-13T10:28:45.061Z,47.22
2023-05-13T10:29:45.042Z,47.46
2023-05-13T10:30:45.034Z,48.56
2023-05-13T10:31:45.042Z,44.87
2023-05-13T10:32:45.037Z,50.32
2023-05-13T10:33:45.014Z,42.04
2023-05-13T10:34:45.009Z,43.10
2023-05-13T10:35:44.972Z,47.89
2023-05-13T10:36:44.975Z,47.18
2023-05-13T10:37:44.986Z,44.07
2023-05-13T10:38:44.977Z,44.19
2023-05-13T10:39:44.936Z,44.80
2023-05-13T10:40:44.933Z,44.99
2023-05-13T10:41:44.916Z,46.05
2023-05-13T10:42:44.936Z,46.03
2023-05-13T10:43:44.902Z,43.42
2023-05-13T10:44:44.889Z,45.29
2023-05-13T10:45:44.885Z,49.88
2023-05-13T10:46:44.957Z,43.75
2023-05-13T10:47:44.965Z,47.12
2023-05-13T10:48:44.897Z,45.14
2023-05-13T10:49:44.843Z,48.48
2023-05-13T10:50:44.832Z,48.07
2023-05-13T10:51:44.826Z,49.68
2023-05-13T10:52:44.804Z,49.11
2023-05-13T10:53:44.818Z,48.42
2023-05-13T10:54:44.784Z,51.31
2023-05-13T10:55:44.783Z,45.94
2023-05-13T10:56:44.791Z,46.50
2023-05-13T10:57:44.759Z,50.05
2023-05-13T10:58:44.768Z,47.67
2023-05-13T10:59:44.749Z,43.61
2023-05-13T11:00:44.740Z,44.69
2023-05-13T11:01:44.769Z,45.95
2023-05-13T11:02:44.755Z,50.97
2023-05-13T11:03:44.794Z,44.12
2023-05-13T11:04:44.692Z,43.79
2023-05-13T11:05:44.697Z,42.99
2023-05-13T11:06:44.671Z,49.73
2023-05-13T11:07:44.670Z,47.61
2023-05-13T11:08:44.669Z,47.90
2023-05-13T11:09:44.647Z,47.09
2023-05-13T11:10:44.693Z,42.65
2023-05-13T11:11:44.625Z,43.35
2023-05-13T11:12:44.621Z,45.56
2023-05-13T11:13:44.611Z,41.90
2023-05-13T11:14:44.598Z,50.68
2023-05-13T11:15:45.735Z,49.34
2023-05-13T11:16:45.622Z,49.76
2023-05-13T11:17:44.635Z,50.90
2023-05-13T11:18:44.620Z,46.48
2023-05-13T11:19:44.547Z,44.64
2023-05-13T11:20:52.077Z,47.54
2023-05-13T11:21:46.536Z,45.13
2023-05-13T11:22:44.522Z,44.10
2023-05-13T11:23:44.512Z,44.99
2023-05-13T11:24:44.518Z,41.24
2023-05-13T11:25:44.509Z,45.16
2023-05-13T11:26:44.487Z,42.60
2023-05-13T11:27:44.479Z,46.17
2023-05-13T11:28:44.473Z,46.10
2023-05-13T11:29:44.469Z,51.12
2023-05-13T11:30:52.027Z,47.26
2023-05-13T11:31:45.468Z,43.16
2023-05-13T11:32:45.160Z,47.19
2023-05-13T11:33:44.457Z,45.44
2023-05-13T11:34:44.474Z,44.70
2023-05-13T11:35:44.404Z,46.51
2023-05-13T11:36:44.387Z,44.66
2023-05-13T11:37:44.396Z,48.79
2023-05-13T11:38:44.436Z,46.39
2023-05-13T11:39:44.622Z,43.85
2023-05-13T11:40:44.359Z,44.50
2023-05-13T11:41:44.382Z,45.05
2023-05-13T11:42:45.655Z,47.79
2023-05-13T11:43:44.366Z,51.68
2023-05-13T11:44:44.368Z,46.43
2023-05-13T11:45:44.398Z,46.65
2023-05-13T11:46:44.319Z,46.55
2023-05-13T11:47:44.392Z,49.14
2023-05-13T11:48:44.333Z,52.19
2023-05-13T11:49:44.304Z,49.29
2023-05-13T11:50:44.295Z,50.60
2023-05-13T11:51:44.291Z,46.49
2023-05-13T11:52:44.264Z,53.08
2023-05-13T11:53:44.276Z,49.04
2023-05-13T11:54:44.318Z,46.55
2023-05-13T11:55:44.283Z,47.22
2023-05-13T11:56:44.230Z,43.60
2023-05-13T11:57:44.201Z,47.40
2023-05-13T11:58:44.303Z,47.09
2023-05-13T11:59:48.143Z,42.47
2023-05-13T12:00:46.591Z,44.51
2023-05-13T12:01:45.230Z,46.01
2023-05-13T12:02:44.359Z,46.13
2023-05-13T12:03:44.275Z,50.39
2023-05-13T12:04:44.197Z,46.30
2023-05-13T12:05:44.345Z,51.34
2023-05-13T12:06:44.146Z,49.84
2023-05-13T12:07:44.115Z,50.08
2023-05-13T12:08:44.136Z,46.95
2023-05-13T12:09:44.129Z,47.29
2023-05-13T12:10:44.114Z,46.35
2023-05-13T12:11:44.107Z,51.35
2023-05-13T12:12:44.134Z,51.54
2023-05-13T12:13:44.038Z,48.66
2023-05-13T12:14:44.060Z,44.94
2023-05-13T12:15:44.079Z,47.18
2023-05-13T12:16:44.070Z,47.45
2023-05-13T12:17:44.093Z,46.07
2023-05-13T12:18:44.024Z,45.37
2023-05-13T12:19:44.004Z,49.10
2023-05-13T12:20:43.965Z,41.19
2023-05-13T12:21:43.974Z,45.57
2023-05-13T12:22:43.985Z,44.83
2023-05-13T12:23:43.963Z,44.54
2023-05-13T12:24:43.972Z,53.44
2023-05-13T12:25:43.995Z,51.00
2023-05-13T12:26:44.063Z,48.64
2023-05-13T12:27:43.948Z,43.95
2023-05-13T12:28:43.909Z,48.36
2023-05-13T12:29:43.887Z,49.58
2023-05-13T12:30:43.870Z,49.04
2023-05-13T12:31:43.893Z,46.44
2023-05-13T12:32:46.923Z,45.18
2023-05-13T12:33:43.827Z,51.41
2023-05-13T12:34:43.833Z,50.97
2023-05-13T12:35:43.836Z,48.66
2023-05-13T12:36:43.847Z,46.92
2023-05-13T12:37:43.800Z,45.64
2023-05-13T12:38:43.786Z,53.10
2023-05-13T12:39:43.772Z,44.83
2023-05-13T12:40:43.805Z,46.30
2023-05-13T12:41:43.777Z,51.17
2023-05-13T12:42:43.747Z,45.83
2023-05-13T12:43:43.730Z,49.76
2023-05-13T12:44:43.736Z,49.97
2023-05-13T12:45:44.956Z,49.32
2023-05-13T12:46:44.822Z,49.36
2023-05-13T12:47:43.746Z,49.48
2023-05-13T12:48:43.693Z,43.11
2023-05-13T12:49:43.693Z,50.80
2023-05-13T12:50:43.665Z,47.92
2023-05-13T12:51:43.649Z,51.87
2023-05-13T12:52:43.684Z,42.27